Time;durP1;ratioP1;P1;durP2;ratioP2;P2;SDS_P1;SDS_P2;PMS_P1;PMS_P2;Temp;Humidity;BMP_temperature;BMP_pressure;BME280_temperature;BME280_humidity;BME280_pressure;Samples;Min_cycle;Max_cycle;Signal;HPM_P1;HPM_P2
2021/04/13 00:01:19;;;;;;;18.90;16.50;;;;;;;4.09;73.77;101352.67;122043;1155;22735;-75
2021/04/13 00:04:05;;;;;;;17.10;15.27;;;;;;;4.08;73.78;101354.45;122179;1155;22539;-75
2021/04/13 00:06:42;;;;;;;17.65;15.65;;;;;;;4.09;73.83;101348.27;122261;1153;22563;-75
2021/04/13 00:09:27;;;;;;;15.60;14.10;;;;;;;4.12;73.71;101352.47;121570;1157;22557;-75
2021/04/13 00:12:08;;;;;;;15.15;13.43;;;;;;;4.12;73.66;101352.47;121604;1157;22559;-75
2021/04/13 00:14:42;;;;;;;14.85;12.55;;;;;;;4.12;73.80;101355.91;121584;1158;22636;-75
2021/04/13 00:17:16;;;;;;;16.58;13.83;;;;;;;4.12;73.57;101353.30;121638;1158;22561;-75
2021/04/13 00:20:04;;;;;;;15.73;13.43;;;;;;;4.11;73.63;101346.41;121520;1156;24439;-75
2021/04/13 00:22:34;;;;;;;17.18;14.20;;;;;;;4.11;73.68;101348.19;121581;1157;22569;-74
2021/04/13 00:25:06;;;;;;;18.10;15.83;;;;;;;4.13;73.86;101348.91;121590;1158;22563;-74
2021/04/13 00:27:35;;;;;;;15.63;13.98;;;;;;;4.14;73.48;101340.14;121759;1155;22558;-73
2021/04/13 00:30:16;;;;;;;15.88;13.50;;;;;;;4.12;73.44;101342.00;121645;1155;24940;-74
2021/04/13 00:32:55;;;;;;;15.70;13.80;;;;;;;4.08;73.61;101340.54;121193;1160;23352;-74
2021/04/13 00:35:41;;;;;;;16.95;12.55;;;;;;;4.07;73.54;101349.33;121178;1158;24785;-75
2021/04/13 00:38:31;;;;;;;14.15;12.75;;;;;;;4.07;73.64;101344.94;121182;1158;23591;-75
2021/04/13 00:41:09;;;;;;;13.70;12.00;;;;;;;4.07;73.85;101352.78;121194;1158;22569;-74
2021/04/13 00:43:42;;;;;;;13.15;11.73;;;;;;;4.09;73.68;101345.66;121210;1158;22597;-74
2021/04/13 00:46:12;;;;;;;12.60;11.23;;;;;;;4.11;73.75;101354.25;121208;1161;22599;-74
2021/04/13 00:48:44;;;;;;;13.15;10.38;;;;;;;4.11;73.62;101351.63;121283;1159;22583;-74
2021/04/13 00:51:35;;;;;;;14.43;11.45;;;;;;;4.13;73.65;101341.05;121321;1159;22666;-74
2021/04/13 00:54:11;;;;;;;11.90;10.70;;;;;;;4.12;73.58;101342.84;121274;1158;22614;-74
2021/04/13 00:56:41;;;;;;;12.13;10.10;;;;;;;4.13;73.52;101344.53;121606;1156;23646;-74
2021/04/13 00:59:17;;;;;;;10.05;9.05;;;;;;;4.14;73.53;101354.05;121627;1155;22551;-73
2021/04/13 01:02:09;;;;;;;10.65;8.48;;;;;;;4.16;73.33;101343.47;121237;1158;22624;-75
2021/04/13 01:04:57;;;;;;;9.58;8.68;;;;;;;4.14;73.34;101340.14;121177;1158;23358;-74
2021/04/13 01:07:44;;;;;;;10.23;9.15;;;;;;;4.10;73.36;101344.73;121186;1160;22608;-74
2021/04/13 01:10:19;;;;;;;11.40;10.03;;;;;;;4.10;73.55;101338.64;121252;1158;22566;-74
2021/04/13 01:13:16;;;;;;;10.88;9.45;;;;;;;4.12;73.58;101337.61;121509;1158;22645;-74
2021/04/13 01:15:50;;;;;;;11.40;8.85;;;;;;;4.13;73.49;101349.77;121433;1159;24728;-74
2021/04/13 01:18:23;;;;;;;10.65;8.78;;;;;;;4.16;73.56;101346.92;121486;1159;22579;-74
2021/04/13 01:21:04;;;;;;;11.40;9.45;;;;;;;4.18;73.30;101338.98;122040;1155;22552;-74
2021/04/13 01:23:43;;;;;;;10.83;9.73;;;;;;;4.18;73.26;101346.83;121840;1155;22572;-74
2021/04/13 01:26:12;;;;;;;10.58;9.48;;;;;;;4.16;73.40;101346.08;122188;1155;22551;-74
2021/04/13 01:28:41;;;;;;;15.55;9.53;;;;;;;4.16;73.50;101344.30;122057;1155;22570;-74
2021/04/13 01:31:40;;;;;;;13.03;9.63;;;;;;;4.16;73.17;101348.70;122157;1152;24764;-74
2021/04/13 01:34:11;;;;;;;11.25;9.53;;;;;;;4.11;73.25;101349.02;122126;1155;22540;-75
2021/04/13 01:36:42;;;;;;;10.00;8.75;;;;;;;4.12;73.42;101358.53;121803;1155;25183;-74
2021/04/13 01:39:23;;;;;;;8.85;7.85;;;;;;;4.12;73.33;101348.06;122056;1155;24457;-74
2021/04/13 01:41:58;;;;;;;11.03;8.38;;;;;;;4.08;72.93;101346.60;122069;1156;24715;-75
2021/04/13 01:44:45;;;;;;;11.63;9.33;;;;;;;4.08;73.29;101351.83;122192;1153;22552;-73
2021/04/13 01:47:19;;;;;;;10.20;8.20;;;;;;;4.07;73.14;101355.39;122125;1154;22630;-74
2021/04/13 01:50:06;;;;;;;11.53;9.05;;;;;;;4.06;73.05;101361.55;122066;1153;22577;-75
2021/04/13 01:52:44;;;;;;;16.60;8.98;;;;;;;4.05;72.75;101365.11;121728;1153;22539;-75
2021/04/13 01:55:35;;;;;;;18.45;9.08;;;;;;;4.02;72.24;101370.53;122265;1153;22546;-75
2021/04/13 01:58:37;;;;;;;7.13;4.65;;;;;;;3.95;71.94;101364.87;122188;1155;22540;-75
2021/04/13 02:01:26;;;;;;;4.28;2.60;;;;;;;3.90;71.50;101363.48;122135;1156;22552;-74
2021/04/13 02:04:05;;;;;;;3.78;2.00;;;;;;;3.86;70.86;101369.85;122121;1155;22606;-74
2021/04/13 02:06:52;;;;;;;4.15;1.90;;;;;;;3.83;70.51;101367.44;122117;1155;22949;-74
2021/04/13 02:09:47;;;;;;;2.75;1.75;;;;;;;3.86;70.19;101368.07;121654;1158;22575;-75
2021/04/13 02:12:27;;;;;;;2.50;1.35;;;;;;;3.89;69.58;101369.66;121555;1156;22560;-76
2021/04/13 02:15:06;;;;;;;2.73;1.23;;;;;;;3.89;69.06;101375.72;121627;1158;22651;-75
2021/04/13 02:17:48;;;;;;;5.33;1.70;;;;;;;3.88;68.65;101374.05;121473;1158;22563;-74
2021/04/13 02:20:28;;;;;;;5.45;2.08;;;;;;;3.88;68.36;101378.45;121597;1156;22568;-75
2021/04/13 02:22:58;;;;;;;3.20;2.05;;;;;;;3.87;68.09;101376.78;121498;1156;22652;-75
2021/04/13 02:25:33;;;;;;;3.18;1.75;;;;;;;3.85;67.91;101379.48;121526;1156;22571;-75
2021/04/13 02:28:06;;;;;;;4.23;2.05;;;;;;;3.80;67.54;101373.72;121845;1153;22594;-75
2021/04/13 02:30:41;;;;;;;2.88;1.73;;;;;;;3.77;67.51;101379.98;122233;1153;24384;-74
2021/04/13 02:33:18;;;;;;;3.78;2.43;;;;;;;3.77;67.46;101374.75;122131;1153;22543;-74
2021/04/13 02:35:47;;;;;;;2.55;1.90;;;;;;;3.77;67.51;101372.14;121578;1155;22556;-73
2021/04/13 02:38:26;;;;;;;4.53;2.25;;;;;;;3.76;67.26;101366.99;121630;1155;22651;-74
2021/04/13 02:41:39;;;;;;;3.25;1.80;;;;;;;3.74;67.02;101366.27;121623;1156;22556;-75
2021/04/13 02:44:14;;;;;;;4.13;2.33;;;;;;;3.69;67.26;101374.39;121775;1158;22593;-74
2021/04/13 02:46:42;;;;;;;7.20;2.30;;;;;;;3.66;67.34;101369.36;121587;1157;22566;-74
2021/04/13 02:49:18;;;;;;;3.93;2.30;;;;;;;3.68;67.38;101383.17;121540;1158;22795;-74
2021/04/13 02:51:57;;;;;;;6.23;3.28;;;;;;;3.71;67.38;101371.70;121619;1156;22565;-73
2021/04/13 02:54:49;;;;;;;4.33;2.45;;;;;;;3.73;67.34;101368.05;121893;1153;22544;-73
2021/04/13 02:57:27;;;;;;;4.23;2.70;;;;;;;3.74;67.33;101369.72;122024;1155;24712;-73
2021/04/13 03:00:05;;;;;;;5.20;2.95;;;;;;;3.76;67.31;101372.22;122084;1153;22558;-73
2021/04/13 03:02:46;;;;;;;6.25;3.80;;;;;;;3.80;67.60;101378.09;122097;1153;25331;-73
2021/04/13 03:05:21;;;;;;;7.15;3.63;;;;;;;3.80;67.42;101368.50;122184;1153;22551;-73
2021/04/13 03:07:49;;;;;;;4.78;4.03;;;;;;;3.83;67.32;101377.89;122025;1155;22538;-73
2021/04/13 03:10:26;;;;;;;7.35;5.03;;;;;;;3.84;67.55;101380.42;122155;1154;23453;-74
2021/04/13 03:12:56;;;;;;;8.00;5.48;;;;;;;3.86;67.71;101383.76;122159;1155;22635;-73
2021/04/13 03:15:28;;;;;;;16.58;8.33;;;;;;;3.89;67.61;101386.17;122202;1153;22552;-74
2021/04/13 03:18:13;;;;;;;16.50;9.40;;;;;;;3.92;67.64;101380.75;122035;1153;24684;-73
2021/04/13 03:20:47;;;;;;;14.23;6.60;;;;;;;3.94;67.69;101378.05;122122;1154;22659;-72
2021/04/13 03:23:19;;;;;;;10.20;6.48;;;;;;;3.99;67.73;101384.64;122042;1155;22572;-74
2021/04/13 03:25:56;;;;;;;7.75;5.88;;;;;;;4.02;67.77;101394.06;122113;1152;22554;-74
2021/04/13 03:28:43;;;;;;;8.55;5.23;;;;;;;3.99;67.72;101389.87;122109;1153;22570;-74
2021/04/13 03:31:14;;;;;;;6.43;4.70;;;;;;;3.94;67.61;101393.73;122183;1153;22552;-74
2021/04/13 03:33:43;;;;;;;5.05;3.85;;;;;;;3.91;67.74;101392.16;122117;1155;22630;-74
2021/04/13 03:36:20;;;;;;;7.45;4.33;;;;;;;3.87;67.80;101395.08;121666;1158;24706;-74
2021/04/13 03:39:17;;;;;;;8.25;4.63;;;;;;;3.83;68.14;101396.19;121569;1156;24480;-74
2021/04/13 03:41:48;;;;;;;14.05;5.48;;;;;;;3.78;68.21;101405.17;121628;1155;22561;-74
2021/04/13 03:44:19;;;;;;;8.60;5.13;;;;;;;3.79;68.31;101403.39;121746;1155;22568;-75
2021/04/13 03:46:48;;;;;;;9.78;4.70;;;;;;;3.80;68.52;101401.61;121608;1155;22611;-75
2021/04/13 03:49:31;;;;;;;9.10;4.65;;;;;;;3.83;68.72;101396.19;121249;1157;22563;-74
2021/04/13 03:52:13;;;;;;;9.37;4.73;;;;;;;3.84;68.78;101406.56;121208;1158;22643;-74
2021/04/13 03:54:41;;;;;;;13.80;5.45;;;;;;;3.86;68.72;101406.45;121267;1158;22640;-75
2021/04/13 03:57:10;;;;;;;8.43;3.83;;;;;;;3.85;69.11;101410.84;121237;1158;22617;-75
2021/04/13 03:59:43;;;;;;;7.25;4.43;;;;;;;3.85;68.95;101410.02;121189;1158;22599;-74
2021/04/13 04:02:12;;;;;;;8.48;3.30;;;;;;;3.80;68.71;101412.06;121291;1156;22661;-74
2021/04/13 04:04:42;;;;;;;5.35;3.10;;;;;;;3.75;68.93;101421.05;121257;1158;24725;-74
2021/04/13 04:07:30;;;;;;;6.38;4.15;;;;;;;3.73;69.15;101422.07;121336;1157;22564;-74
2021/04/13 04:09:58;;;;;;;8.28;4.53;;;;;;;3.70;69.09;101424.91;121598;1156;22559;-74
2021/04/13 04:12:31;;;;;;;10.77;5.57;;;;;;;3.65;69.13;101425.17;121590;1158;24706;-74
2021/04/13 04:15:10;;;;;;;13.47;6.93;;;;;;;3.61;69.18;101434.16;121609;1156;22583;-74
2021/04/13 04:17:49;;;;;;;15.20;7.93;;;;;;;3.60;69.59;101424.64;121530;1156;22584;-74
2021/04/13 04:20:33;;;;;;;10.48;5.68;;;;;;;3.60;69.80;101426.39;121512;1156;22727;-75
2021/04/13 04:23:02;;;;;;;9.48;4.65;;;;;;;3.55;69.88;101418.86;121576;1157;23015;-74
2021/04/13 04:25:48;;;;;;;7.93;4.58;;;;;;;3.54;69.78;101430.25;121192;1158;22671;-73
2021/04/13 04:28:25;;;;;;;7.18;4.80;;;;;;;3.51;70.44;101425.22;121225;1161;22680;-74
2021/04/13 04:31:37;;;;;;;9.98;5.23;;;;;;;3.48;70.11;101426.23;121176;1158;24440;-74
2021/04/13 04:34:16;;;;;;;8.53;4.50;;;;;;;3.44;70.38;101429.15;121344;1161;23364;-74
2021/04/13 04:36:53;;;;;;;12.90;7.20;;;;;;;3.44;70.55;101426.53;121206;1161;24766;-74
2021/04/13 04:39:40;;;;;;;13.48;7.20;;;;;;;3.48;70.86;101422.79;121521;1159;22611;-74
2021/04/13 04:42:27;;;;;;;13.15;8.13;;;;;;;3.50;70.96;101421.77;121534;1158;23496;-75
2021/04/13 04:45:33;;;;;;;11.65;7.75;;;;;;;3.52;71.17;101429.50;122141;1155;25254;-75
2021/04/13 04:48:26;;;;;;;11.90;7.70;;;;;;;3.54;71.14;101436.31;122081;1153;22544;-74
2021/04/13 04:50:59;;;;;;;10.35;7.18;;;;;;;3.57;71.42;101439.68;122178;1153;22565;-74
2021/04/13 04:53:36;;;;;;;16.05;9.20;;;;;;;3.61;71.52;101435.93;122136;1155;22542;-77
2021/04/13 04:56:09;;;;;;;14.08;9.53;;;;;;;3.64;71.67;101435.73;122109;1155;22587;-74
2021/04/13 04:58:38;;;;;;;11.27;8.17;;;;;;;3.66;71.67;101445.14;122245;1155;22636;-74
2021/04/13 05:01:07;;;;;;;13.48;8.70;;;;;;;3.68;71.68;101448.50;122110;1155;22543;-73
2021/04/13 05:03:41;;;;;;;15.00;9.43;;;;;;;3.72;71.87;101441.31;122167;1155;22541;-74
2021/04/13 05:06:11;;;;;;;14.15;8.53;;;;;;;3.78;72.00;101438.31;121585;1157;23393;-74
2021/04/13 05:08:40;;;;;;;14.43;11.45;;;;;;;3.86;72.22;101446.49;121586;1156;22610;-74
2021/04/13 05:11:12;;;;;;;13.88;10.43;;;;;;;3.92;72.19;101446.11;121571;1156;22640;-75
2021/04/13 05:13:41;;;;;;;16.75;11.70;;;;;;;3.98;72.07;101447.50;121606;1158;22565;-76
2021/04/13 05:16:10;;;;;;;16.65;10.88;;;;;;;4.03;72.35;101450.64;121559;1158;22615;-76
2021/04/13 05:18:38;;;;;;;21.60;12.98;;;;;;;4.09;72.21;101444.19;121588;1156;22565;-74
2021/04/13 05:21:07;;;;;;;21.23;12.45;;;;;;;4.15;72.39;101451.64;121500;1158;22847;-74
2021/04/13 05:23:36;;;;;;;19.03;13.05;;;;;;;4.16;71.81;101448.91;121140;1156;22790;-74
2021/04/13 05:26:06;;;;;;;18.05;11.65;;;;;;;4.17;71.72;101455.01;121578;1157;22581;-74
2021/04/13 05:28:34;;;;;;;11.98;9.15;;;;;;;4.15;71.40;101459.48;121584;1156;22577;-75
2021/04/13 05:31:04;;;;;;;14.10;9.70;;;;;;;4.13;71.68;101456.13;121217;1158;23422;-74
2021/04/13 05:33:33;;;;;;;13.73;10.43;;;;;;;4.13;71.54;101458.73;121233;1158;22594;-74
2021/04/13 05:36:04;;;;;;;16.90;9.68;;;;;;;4.12;71.57;101457.91;121512;1158;22581;-75
2021/04/13 05:38:41;;;;;;;16.17;11.23;;;;;;;4.18;71.87;101448.83;121260;1158;22915;-75
2021/04/13 05:41:14;;;;;;;16.10;8.95;;;;;;;4.23;71.62;101450.22;121559;1156;22691;-76
2021/04/13 05:43:44;;;;;;;11.30;7.93;;;;;;;4.28;72.01;101447.29;121733;1155;22581;-74
2021/04/13 05:46:25;;;;;;;15.05;9.68;;;;;;;4.33;71.62;101449.59;121695;1154;22891;-75
2021/04/13 05:49:00;;;;;;;14.50;10.13;;;;;;;4.38;71.28;101447.53;121584;1156;24792;-75
2021/04/13 05:51:29;;;;;;;13.55;8.75;;;;;;;4.43;71.59;101448.05;121659;1158;22612;-75
2021/04/13 05:54:03;;;;;;;17.78;13.48;;;;;;;4.48;71.42;101457.28;121636;1158;22572;-75
2021/04/13 05:56:41;;;;;;;17.00;11.88;;;;;;;4.54;71.60;101453.43;121570;1156;22630;-75
2021/04/13 05:59:18;;;;;;;22.70;12.10;;;;;;;4.61;71.51;101454.70;121591;1158;22565;-76
2021/04/13 06:01:49;;;;;;;28.20;15.50;;;;;;;4.69;71.52;101460.23;121348;1161;22592;-75
2021/04/13 06:04:17;;;;;;;24.93;16.58;;;;;;;4.77;71.48;101469.39;121297;1159;22702;-76
2021/04/13 06:06:49;;;;;;;24.35;18.80;;;;;;;4.80;71.25;101462.16;121355;1158;22647;-75
2021/04/13 06:09:20;;;;;;;24.80;20.03;;;;;;;4.82;71.23;101465.50;121562;1158;22662;-74
2021/04/13 06:11:51;;;;;;;23.13;18.10;;;;;;;4.84;70.92;101463.63;121538;1158;22570;-74
2021/04/13 06:14:21;;;;;;;16.20;11.40;;;;;;;4.87;70.93;101465.20;121212;1159;23025;-74
2021/04/13 06:16:51;;;;;;;14.68;10.30;;;;;;;4.89;70.99;101464.14;121542;1158;22569;-76
2021/04/13 06:19:25;;;;;;;15.48;8.45;;;;;;;4.92;70.85;101465.72;121598;1155;22556;-75
2021/04/13 06:21:54;;;;;;;10.98;7.78;;;;;;;4.97;70.82;101466.26;122072;1155;22555;-75
2021/04/13 06:24:28;;;;;;;11.83;7.08;;;;;;;5.01;70.68;101470.34;122042;1155;22544;-75
2021/04/13 06:26:57;;;;;;;10.70;6.38;;;;;;;5.04;70.58;101472.75;121713;1155;24689;-75
2021/04/13 06:29:38;;;;;;;7.88;6.10;;;;;;;5.09;70.59;101472.42;122151;1153;22540;-77
2021/04/13 06:32:13;;;;;;;9.05;6.40;;;;;;;5.15;70.73;101472.02;121770;1155;24386;-75
2021/04/13 06:34:45;;;;;;;12.98;9.18;;;;;;;5.21;70.48;101468.98;122074;1155;22541;-77
2021/04/13 06:37:14;;;;;;;19.38;13.28;;;;;;;5.27;70.30;101465.94;122150;1154;22547;-76
2021/04/13 06:39:44;;;;;;;14.78;11.70;;;;;;;5.32;69.99;101476.09;122111;1153;22584;-75
2021/04/13 06:42:18;;;;;;;17.73;11.33;;;;;;;5.34;70.26;101474.21;122081;1154;22637;-75
2021/04/13 06:44:55;;;;;;;13.10;9.75;;;;;;;5.38;70.00;101478.29;122102;1153;22554;-75
2021/04/13 06:47:49;;;;;;;13.15;9.03;;;;;;;5.47;70.27;101482.06;122117;1155;23313;-72
2021/04/13 06:50:29;;;;;;;11.03;7.33;;;;;;;5.52;70.06;101485.19;122218;1153;22635;-76
2021/04/13 06:53:26;;;;;;;14.63;8.28;;;;;;;5.58;69.96;101480.34;122140;1154;22546;-76
2021/04/13 06:56:23;;;;;;;14.25;7.75;;;;;;;5.66;69.80;101483.29;122162;1155;22552;-75
2021/04/13 06:59:35;;;;;;;10.55;8.00;;;;;;;5.70;69.43;101496.15;122122;1153;22530;-75
2021/04/13 07:02:17;;;;;;;15.88;10.53;;;;;;;5.81;69.65;101496.25;122163;1155;22547;-76
2021/04/13 07:05:18;;;;;;;10.87;8.67;;;;;;;5.89;69.27;101499.15;122093;1155;22601;-76
2021/04/13 07:08:24;;;;;;;12.93;8.85;;;;;;;5.93;69.02;101498.04;121604;1158;23713;-74
2021/04/13 07:11:05;;;;;;;13.98;9.30;;;;;;;6.01;68.94;101498.31;121487;1158;24725;-74
2021/04/13 07:13:51;;;;;;;20.08;11.45;;;;;;;6.11;68.86;101493.25;121512;1158;22581;-76
2021/04/13 07:16:27;;;;;;;15.60;11.50;;;;;;;6.19;68.30;101492.68;121557;1156;22582;-77
2021/04/13 07:19:11;;;;;;;13.85;10.30;;;;;;;6.21;67.82;101486.38;121574;1158;22585;-75
2021/04/13 07:21:56;;;;;;;17.93;11.88;;;;;;;6.26;68.04;101489.48;121566;1158;22678;-75
2021/04/13 07:24:57;;;;;;;16.33;12.15;;;;;;;6.34;67.92;101494.20;121514;1158;24552;-75
2021/04/13 07:27:55;;;;;;;15.15;10.85;;;;;;;6.38;67.32;101495.64;121592;1158;22706;-77
2021/04/13 07:30:33;;;;;;;15.23;12.23;;;;;;;6.39;67.05;101494.69;121623;1157;22575;-76
2021/04/13 07:33:05;;;;;;;18.03;12.70;;;;;;;6.39;67.19;101491.23;121530;1158;22587;-78
2021/04/13 07:35:38;;;;;;;14.23;10.30;;;;;;;6.40;66.87;101491.13;121594;1156;24433;-76
2021/04/13 07:38:16;;;;;;;17.65;10.58;;;;;;;6.40;66.79;101493.76;121574;1158;22581;-77
2021/04/13 07:40:51;;;;;;;13.10;10.50;;;;;;;6.43;66.77;101501.41;121531;1158;22579;-76
2021/04/13 07:43:24;;;;;;;12.90;10.98;;;;;;;6.48;66.68;101498.44;121586;1157;22595;-78
2021/04/13 07:46:17;;;;;;;16.23;13.30;;;;;;;6.52;66.57;101511.20;122188;1154;22562;-79
2021/04/13 07:49:06;;;;;;;16.75;10.43;;;;;;;6.54;66.24;101506.70;122200;1155;24448;-79
2021/04/13 07:51:59;;;;;;;15.03;10.18;;;;;;;6.56;66.13;101506.56;122169;1156;22545;-79
2021/04/13 07:54:45;;;;;;;12.90;8.53;;;;;;;6.60;65.98;101514.13;122139;1153;23421;-80
2021/04/13 07:57:20;;;;;;;12.48;8.18;;;;;;;6.58;65.76;101509.92;122172;1153;22637;-80
2021/04/13 08:00:08;;;;;;;10.53;8.17;;;;;;;6.55;65.44;101521.48;122135;1154;22615;-80
2021/04/13 08:02:41;;;;;;;12.08;8.08;;;;;;;6.51;65.26;101517.42;122156;1153;22545;-79
2021/04/13 08:05:11;;;;;;;12.05;8.28;;;;;;;6.52;65.43;101524.33;122126;1152;22545;-79
2021/04/13 08:07:43;;;;;;;8.80;6.85;;;;;;;6.55;65.29;101521.48;121579;1157;22748;-79
2021/04/13 08:10:38;;;;;;;;;;;;;;;6.54;65.23;101519.82;121652;1160;24718;-79
2021/04/13 08:13:13;;;;;;;8.23;6.18;;;;;;;6.53;65.45;101519.91;121715;1157;23075;-79
2021/04/13 08:15:52;;;;;;;10.15;7.08;;;;;;;6.65;65.42;101510.31;121585;1158;25024;-79
2021/04/13 08:18:40;;;;;;;9.90;7.35;;;;;;;6.66;64.90;101511.98;121551;1156;22629;-79
2021/04/13 08:21:33;;;;;;;10.35;6.95;;;;;;;6.65;64.85;101500.64;121666;1158;22551;-80
2021/04/13 08:24:07;;;;;;;10.93;9.43;;;;;;;6.68;64.92;101512.71;121649;1158;24505;-80
2021/04/13 08:26:45;;;;;;;11.08;6.93;;;;;;;6.67;64.66;101496.13;122056;1155;22560;-79
2021/04/13 08:29:55;;;;;;;11.75;8.10;;;;;;;6.62;64.27;101503.48;122141;1155;22548;-79
2021/04/13 08:32:50;;;;;;;52.73;38.55;;;;;;;6.58;64.71;101502.88;122211;1155;24429;-79
2021/04/13 08:35:21;;;;;;;14.07;10.03;;;;;;;6.59;64.88;101498.47;121828;1155;22560;-79
2021/04/13 08:38:20;;;;;;;12.23;10.23;;;;;;;6.60;64.38;101497.53;121778;1157;22567;-79
2021/04/13 08:41:11;;;;;;;17.83;12.68;;;;;;;6.60;64.95;101495.74;122004;1155;24716;-79
2021/04/13 08:43:51;;;;;;;12.30;11.15;;;;;;;6.59;64.24;101491.42;121698;1156;22549;-79
2021/04/13 08:46:28;;;;;;;15.03;10.93;;;;;;;6.56;64.21;101490.81;121773;1155;24796;-81
2021/04/13 08:49:10;;;;;;;15.10;11.35;;;;;;;6.55;64.11;101487.36;121706;1155;22561;-80
2021/04/13 08:51:50;;;;;;;15.50;11.60;;;;;;;6.56;64.47;101490.81;122076;1157;24699;-78
2021/04/13 08:54:21;;;;;;;12.95;11.23;;;;;;;6.57;64.38;101488.09;121835;1155;22554;-80
2021/04/13 08:57:03;;;;;;;17.45;14.35;;;;;;;6.64;64.31;101485.02;121796;1155;25436;-80
2021/04/13 08:59:42;;;;;;;15.50;11.93;;;;;;;6.72;64.37;101480.84;121837;1155;24699;-79
2021/04/13 09:02:34;;;;;;;13.63;9.90;;;;;;;6.82;64.11;101488.88;122168;1155;22552;-80
2021/04/13 09:05:28;;;;;;;14.53;11.05;;;;;;;6.89;63.96;101487.45;122164;1155;22534;-79
2021/04/13 09:08:26;;;;;;;18.65;13.85;;;;;;;6.95;63.77;101491.41;121979;1153;22547;-79
2021/04/13 09:11:32;;;;;;;17.95;15.50;;;;;;;7.02;63.67;101493.45;122096;1155;22636;-79
2021/04/13 09:14:07;;;;;;;13.90;10.43;;;;;;;7.11;63.30;101493.72;122071;1155;22556;-79
2021/04/13 09:16:44;;;;;;;16.45;11.55;;;;;;;7.15;63.24;101495.98;122115;1155;22556;-79
2021/04/13 09:19:35;;;;;;;15.33;11.88;;;;;;;7.26;63.14;101490.76;122112;1153;22650;-79
2021/04/13 09:22:29;;;;;;;15.53;12.03;;;;;;;7.30;62.81;101497.44;122113;1155;22547;-80
2021/04/13 09:25:33;;;;;;;17.68;15.33;;;;;;;7.41;62.87;101490.52;122092;1155;22540;-79
2021/04/13 09:28:10;;;;;;;19.15;15.40;;;;;;;7.52;62.67;101480.81;122160;1153;22551;-79
2021/04/13 09:31:06;;;;;;;25.65;16.88;;;;;;;7.66;62.55;101486.78;122119;1155;24699;-80
2021/04/13 09:33:44;;;;;;;17.45;13.93;;;;;;;7.76;62.02;101488.59;122147;1154;22562;-80
2021/04/13 09:36:59;;;;;;;15.78;13.00;;;;;;;7.81;61.68;101480.33;122127;1153;22770;-80
2021/04/13 09:39:56;;;;;;;18.73;16.68;;;;;;;7.87;61.58;101479.84;121242;1159;22654;-79
2021/04/13 09:43:01;;;;;;;18.98;16.40;;;;;;;7.94;61.19;101486.28;121231;1161;22765;-80
2021/04/13 09:46:01;;;;;;;20.88;16.93;;;;;;;7.99;61.23;101485.89;121351;1161;22570;-80
2021/04/13 09:48:56;;;;;;;18.68;14.48;;;;;;;8.01;60.72;101470.84;121351;1159;22638;-79
2021/04/13 09:51:27;;;;;;;18.65;15.63;;;;;;;8.10;60.92;101475.36;121259;1161;25030;-79
2021/04/13 09:54:19;;;;;;;23.70;16.27;;;;;;;8.20;61.12;101473.66;121298;1160;24969;-80
2021/04/13 09:57:31;;;;;;;22.30;15.93;;;;;;;8.34;60.80;101469.89;121299;1158;22648;-82
2021/04/13 10:00:29;;;;;;;18.18;15.38;;;;;;;8.44;60.54;101473.47;121577;1156;22571;-81
2021/04/13 10:03:09;;;;;;;16.38;14.70;;;;;;;8.58;60.59;101460.95;121720;1158;23447;-81
2021/04/13 10:05:47;;;;;;;16.63;14.80;;;;;;;8.76;60.50;101458.57;121952;1157;22867;-80
2021/04/13 10:08:24;;;;;;;23.17;16.63;;;;;;;8.91;59.81;101466.03;121642;1156;22669;-79
2021/04/13 10:11:16;;;;;;;17.75;15.90;;;;;;;8.97;59.28;101466.48;121572;1157;25938;-79
2021/04/13 10:14:30;;;;;;;20.47;17.13;;;;;;;9.02;59.23;101456.38;121717;1156;22554;-79
2021/04/13 10:17:17;;;;;;;20.53;16.57;;;;;;;9.12;58.79;101459.89;121933;1155;22541;-80
2021/04/13 10:20:17;;;;;;;18.57;14.63;;;;;;;9.12;58.33;101457.26;122197;1155;22551;-79
2021/04/13 10:23:24;;;;;;;14.60;13.05;;;;;;;9.12;57.99;101459.89;121684;1156;22577;-81
2021/04/13 10:26:23;;;;;;;15.90;11.60;;;;;;;9.09;58.10;101462.79;122132;1155;22752;-80
2021/04/13 10:29:30;;;;;;;13.40;10.03;;;;;;;9.23;57.85;101445.78;121790;1155;23406;-80
2021/04/13 10:32:36;;;;;;;11.35;9.60;;;;;;;9.37;57.30;101448.91;121679;1155;22605;-81
2021/04/13 10:35:27;;;;;;;12.30;7.18;;;;;;;9.49;56.63;101449.63;121724;1155;22542;-80
2021/04/13 10:38:41;;;;;;;9.15;6.68;;;;;;;9.54;55.70;101441.34;121796;1155;22555;-81
2021/04/13 10:41:57;;;;;;;8.58;6.60;;;;;;;9.60;55.36;101446.91;121914;1155;22568;-81
2021/04/13 10:44:37;;;;;;;8.98;6.23;;;;;;;9.66;54.74;101440.23;121666;1157;22577;-81
2021/04/13 10:47:53;;;;;;;8.18;5.90;;;;;;;9.64;54.02;101437.75;121620;1158;22642;-81
2021/04/13 10:51:05;;;;;;;7.48;5.75;;;;;;;9.72;53.92;101438.88;121770;1158;23033;-80
2021/04/13 10:54:10;;;;;;;10.45;8.70;;;;;;;9.82;53.45;101423.89;121611;1157;22719;-80
2021/04/13 10:57:34;;;;;;;11.75;6.98;;;;;;;9.86;53.01;101425.28;121601;1156;23435;-80
2021/04/13 11:00:21;;;;;;;13.93;10.58;;;;;;;9.85;52.48;101428.90;121608;1156;22623;-81
2021/04/13 11:03:16;;;;;;;8.50;6.90;;;;;;;9.77;52.20;101421.67;121229;1161;22603;-80
2021/04/13 11:06:28;;;;;;;8.43;7.28;;;;;;;9.64;52.02;101424.56;121288;1161;22615;-81
2021/04/13 11:09:54;;;;;;;10.10;7.05;;;;;;;9.46;51.73;101420.06;121163;1160;24479;-80
2021/04/13 11:13:05;;;;;;;7.67;5.90;;;;;;;9.29;51.73;101417.08;120799;1164;22619;-79
2021/04/13 11:16:16;;;;;;;9.70;6.70;;;;;;;9.20;51.55;101423.17;120913;1164;24431;-78
2021/04/13 11:19:24;;;;;;;6.70;5.93;;;;;;;9.13;51.62;101428.14;120761;1168;22613;-79
2021/04/13 11:22:01;;;;;;;11.10;7.40;;;;;;;9.06;51.66;101420.88;121066;1161;22788;-79
2021/04/13 11:24:44;;;;;;;9.25;5.80;;;;;;;9.00;51.77;101413.48;121190;1161;22584;-79
2021/04/13 11:27:49;;;;;;;8.27;6.40;;;;;;;8.89;51.56;101415.23;121211;1161;22653;-84
2021/04/13 11:31:14;;;;;;;9.47;7.07;;;;;;;8.79;51.08;101414.36;121204;1161;22585;-79
2021/04/13 11:34:21;;;;;;;10.43;7.15;;;;;;;8.63;51.35;101421.88;121279;1159;24738;-80
2021/04/13 11:37:32;;;;;;;9.65;7.35;;;;;;;8.47;51.44;101419.72;121108;1161;22593;-79
2021/04/13 11:40:49;;;;;;;10.70;7.15;;;;;;;8.42;51.39;101414.81;121256;1161;22637;-79
2021/04/13 11:43:25;;;;;;;13.33;8.18;;;;;;;8.42;52.09;101413.98;121214;1161;22786;-78
2021/04/13 11:46:04;;;;;;;9.65;7.75;;;;;;;8.45;52.25;101411.09;121027;1163;23394;-78
2021/04/13 11:49:32;;;;;;;11.53;8.25;;;;;;;8.52;52.33;101408.79;121112;1161;22639;-80
2021/04/13 11:52:31;;;;;;;12.10;9.45;;;;;;;8.60;52.60;101403.73;121175;1162;23387;-78
2021/04/13 11:55:03;;;;;;;10.85;8.60;;;;;;;8.81;52.70;101404.53;121202;1161;23351;-79
2021/04/13 11:58:02;;;;;;;11.20;7.35;;;;;;;9.01;52.73;101399.36;121228;1161;24844;-78
2021/04/13 12:00:31;;;;;;;8.67;7.30;;;;;;;9.20;51.89;101391.55;121275;1161;23482;-81
2021/04/13 12:03:11;;;;;;;6.10;5.50;;;;;;;9.35;51.24;101387.55;121271;1161;22679;-78
2021/04/13 12:06:05;;;;;;;9.35;5.85;;;;;;;9.52;50.53;101393.97;121300;1161;22713;-77
2021/04/13 12:08:37;;;;;;;7.63;4.78;;;;;;;9.66;49.98;101382.20;121150;1162;23480;-80
2021/04/13 12:11:36;;;;;;;8.67;5.20;;;;;;;9.80;49.07;101384.46;121524;1158;22749;-78
2021/04/13 12:14:44;;;;;;;4.95;3.83;;;;;;;9.86;48.20;101386.55;122114;1155;22562;-80
2021/04/13 12:17:39;;;;;;;7.03;4.20;;;;;;;9.92;47.81;101376.40;121646;1156;22558;-78
2021/04/13 12:20:27;;;;;;;6.10;4.05;;;;;;;9.97;47.19;101377.66;121728;1158;22571;-76
2021/04/13 12:23:05;;;;;;;6.73;4.18;;;;;;;10.01;46.60;101381.69;121733;1158;22559;-78
2021/04/13 12:25:52;;;;;;;7.53;4.58;;;;;;;10.03;46.41;101378.89;121642;1158;22561;-77
2021/04/13 12:28:32;;;;;;;11.67;5.23;;;;;;;10.01;46.16;101360.56;121690;1158;22553;-77
2021/04/13 12:31:30;;;;;;;5.75;4.60;;;;;;;10.01;46.17;101368.48;121658;1156;25182;-77